sensor_id;sensor_type;location;lat;lon;timestamp;P1;durP1;ratioP1;P2;durP2;ratioP2
36321;SDS011;23564;48.290;11.460;2023-04-25T00:00:35;4.63;;;2.92;;
36321;SDS011;23564;48.290;11.460;2023-04-25T00:03:00;9.73;;;3.47;;
36321;SDS011;23564;48.290;11.460;2023-04-25T00:05:26;4.40;;;3.00;;
36321;SDS011;23564;48.290;11.460;2023-04-25T00:07:52;6.20;;;2.70;;
36321;SDS011;23564;48.290;11.460;2023-04-25T00:10:18;5.82;;;3.08;;
36321;SDS011;23564;48.290;11.460;2023-04-25T00:12:45;4.43;;;3.15;;
36321;SDS011;23564;48.290;11.460;2023-04-25T00:15:11;6.70;;;2.85;;
36321;SDS011;23564;48.290;11.460;2023-04-25T00:17:37;7.90;;;3.33;;
36321;SDS011;23564;48.290;11.460;2023-04-25T00:20:06;9.63;;;3.45;;
36321;SDS011;23564;48.290;11.460;2023-04-25T00:22:34;4.85;;;2.95;;
36321;SDS011;23564;48.290;11.460;2023-04-25T00:25:02;3.35;;;2.80;;
36321;SDS011;23564;48.290;11.460;2023-04-25T00:27:31;7.05;;;3.70;;
36321;SDS011;23564;48.290;11.460;2023-04-25T00:29:56;7.40;;;3.30;;
36321;SDS011;23564;48.290;11.460;2023-04-25T00:32:22;6.85;;;2.83;;
36321;SDS011;23564;48.290;11.460;2023-04-25T00:34:47;8.43;;;3.30;;
36321;SDS011;23564;48.290;11.460;2023-04-25T00:37:13;11.63;;;3.60;;
36321;SDS011;23564;48.290;11.460;2023-04-25T00:39:39;4.35;;;2.95;;
36321;SDS011;23564;48.290;11.460;2023-04-25T00:42:04;3.60;;;2.90;;
36321;SDS011;23564;48.290;11.460;2023-04-25T00:44:31;7.00;;;3.30;;
36321;SDS011;23564;48.290;11.460;2023-04-25T00:46:57;8.30;;;2.92;;
36321;SDS011;23564;48.290;11.460;2023-04-25T00:49:23;3.83;;;2.90;;
36321;SDS011;23564;48.290;11.460;2023-04-25T00:51:48;3.92;;;2.65;;
36321;SDS011;23564;48.290;11.460;2023-04-25T00:54:14;6.30;;;3.17;;
36321;SDS011;23564;48.290;11.460;2023-04-25T00:56:40;7.57;;;2.95;;
36321;SDS011;23564;48.290;11.460;2023-04-25T00:59:06;4.30;;;2.50;;
36321;SDS011;23564;48.290;11.460;2023-04-25T01:01:34;3.97;;;2.90;;
36321;SDS011;23564;48.290;11.460;2023-04-25T01:04:00;4.60;;;2.97;;
36321;SDS011;23564;48.290;11.460;2023-04-25T01:06:26;4.90;;;3.08;;
36321;SDS011;23564;48.290;11.460;2023-04-25T01:08:52;4.82;;;3.05;;
36321;SDS011;23564;48.290;11.460;2023-04-25T01:11:18;4.47;;;2.90;;
36321;SDS011;23564;48.290;11.460;2023-04-25T01:13:44;5.78;;;3.08;;
36321;SDS011;23564;48.290;11.460;2023-04-25T01:16:10;3.97;;;2.75;;
36321;SDS011;23564;48.290;11.460;2023-04-25T01:18:36;4.43;;;3.15;;
36321;SDS011;23564;48.290;11.460;2023-04-25T01:21:07;3.72;;;2.80;;
36321;SDS011;23564;48.290;11.460;2023-04-25T01:23:34;4.75;;;2.90;;
36321;SDS011;23564;48.290;11.460;2023-04-25T01:26:00;7.10;;;3.33;;
36321;SDS011;23564;48.290;11.460;2023-04-25T01:28:27;5.20;;;3.50;;
36321;SDS011;23564;48.290;11.460;2023-04-25T01:30:53;5.38;;;3.50;;
36321;SDS011;23564;48.290;11.460;2023-04-25T01:33:19;7.55;;;3.03;;
36321;SDS011;23564;48.290;11.460;2023-04-25T01:35:46;4.75;;;3.13;;
36321;SDS011;23564;48.290;11.460;2023-04-25T01:38:12;5.50;;;3.30;;
36321;SDS011;23564;48.290;11.460;2023-04-25T01:40:38;5.45;;;3.53;;
36321;SDS011;23564;48.290;11.460;2023-04-25T01:43:05;10.55;;;3.13;;
36321;SDS011;23564;48.290;11.460;2023-04-25T01:45:33;4.63;;;3.15;;
36321;SDS011;23564;48.290;11.460;2023-04-25T01:48:01;10.45;;;3.28;;
36321;SDS011;23564;48.290;11.460;2023-04-25T01:50:27;4.40;;;3.15;;
36321;SDS011;23564;48.290;11.460;2023-04-25T01:52:52;3.85;;;2.78;;
36321;SDS011;23564;48.290;11.460;2023-04-25T01:55:18;7.05;;;3.08;;
36321;SDS011;23564;48.290;11.460;2023-04-25T01:57:44;6.18;;;3.58;;
36321;SDS011;23564;48.290;11.460;2023-04-25T02:00:10;4.25;;;2.90;;
36321;SDS011;23564;48.290;11.460;2023-04-25T02:02:36;4.43;;;3.17;;
36321;SDS011;23564;48.290;11.460;2023-04-25T02:05:01;6.18;;;3.08;;
36321;SDS011;23564;48.290;11.460;2023-04-25T02:07:27;4.65;;;2.95;;
36321;SDS011;23564;48.290;11.460;2023-04-25T02:09:53;8.07;;;2.95;;
36321;SDS011;23564;48.290;11.460;2023-04-25T02:12:18;4.45;;;3.45;;
36321;SDS011;23564;48.290;11.460;2023-04-25T02:14:44;4.80;;;2.72;;
36321;SDS011;23564;48.290;11.460;2023-04-25T02:17:10;7.15;;;3.47;;
36321;SDS011;23564;48.290;11.460;2023-04-25T02:19:37;8.00;;;3.50;;
36321;SDS011;23564;48.290;11.460;2023-04-25T02:22:03;6.85;;;3.15;;
36321;SDS011;23564;48.290;11.460;2023-04-25T02:24:28;4.45;;;3.30;;
36321;SDS011;23564;48.290;11.460;2023-04-25T02:26:54;5.57;;;2.97;;
36321;SDS011;23564;48.290;11.460;2023-04-25T02:29:21;6.00;;;3.45;;
36321;SDS011;23564;48.290;11.460;2023-04-25T02:31:46;6.68;;;3.25;;
36321;SDS011;23564;48.290;11.460;2023-04-25T02:34:12;4.32;;;3.28;;
36321;SDS011;23564;48.290;11.460;2023-04-25T02:36:37;7.68;;;3.10;;
36321;SDS011;23564;48.290;11.460;2023-04-25T02:39:03;6.47;;;2.97;;
36321;SDS011;23564;48.290;11.460;2023-04-25T02:41:29;5.70;;;3.20;;
36321;SDS011;23564;48.290;11.460;2023-04-25T02:43:54;7.47;;;3.55;;
36321;SDS011;23564;48.290;11.460;2023-04-25T02:46:20;5.60;;;3.15;;
36321;SDS011;23564;48.290;11.460;2023-04-25T02:48:46;4.72;;;2.97;;
36321;SDS011;23564;48.290;11.460;2023-04-25T02:51:11;6.78;;;3.53;;
36321;SDS011;23564;48.290;11.460;2023-04-25T02:53:37;5.72;;;2.88;;
36321;SDS011;23564;48.290;11.460;2023-04-25T02:56:03;5.22;;;3.60;;
36321;SDS011;23564;48.290;11.460;2023-04-25T02:58:28;6.28;;;3.58;;
36321;SDS011;23564;48.290;11.460;2023-04-25T03:00:54;8.65;;;3.20;;
36321;SDS011;23564;48.290;11.460;2023-04-25T03:03:20;5.68;;;4.07;;
36321;SDS011;23564;48.290;11.460;2023-04-25T03:05:49;7.38;;;3.30;;
36321;SDS011;23564;48.290;11.460;2023-04-25T03:08:15;6.03;;;3.75;;
36321;SDS011;23564;48.290;11.460;2023-04-25T03:10:41;6.63;;;3.88;;
36321;SDS011;23564;48.290;11.460;2023-04-25T03:13:07;7.50;;;3.70;;
36321;SDS011;23564;48.290;11.460;2023-04-25T03:15:32;4.63;;;3.67;;
36321;SDS011;23564;48.290;11.460;2023-04-25T03:17:58;5.07;;;3.60;;
36321;SDS011;23564;48.290;11.460;2023-04-25T03:20:24;5.53;;;3.33;;
36321;SDS011;23564;48.290;11.460;2023-04-25T03:22:49;5.50;;;3.40;;
36321;SDS011;23564;48.290;11.460;2023-04-25T03:25:15;5.70;;;3.38;;
36321;SDS011;23564;48.290;11.460;2023-04-25T03:27:41;5.53;;;3.17;;
36321;SDS011;23564;48.290;11.460;2023-04-25T03:30:06;6.80;;;3.40;;
36321;SDS011;23564;48.290;11.460;2023-04-25T03:32:33;10.40;;;3.25;;
36321;SDS011;23564;48.290;11.460;2023-04-25T03:34:59;7.03;;;3.15;;
36321;SDS011;23564;48.290;11.460;2023-04-25T03:37:25;4.68;;;3.22;;
36321;SDS011;23564;48.290;11.460;2023-04-25T03:39:50;11.55;;;3.22;;
36321;SDS011;23564;48.290;11.460;2023-04-25T03:42:16;7.10;;;3.47;;
36321;SDS011;23564;48.290;11.460;2023-04-25T03:44:42;6.93;;;3.75;;
36321;SDS011;23564;48.290;11.460;2023-04-25T03:47:08;5.57;;;3.25;;
36321;SDS011;23564;48.290;11.460;2023-04-25T03:49:34;5.78;;;3.65;;
36321;SDS011;23564;48.290;11.460;2023-04-25T03:52:00;6.47;;;3.53;;
36321;SDS011;23564;48.290;11.460;2023-04-25T03:54:26;8.82;;;3.50;;
36321;SDS011;23564;48.290;11.460;2023-04-25T03:56:51;4.50;;;3.05;;
36321;SDS011;23564;48.290;11.460;2023-04-25T03:59:17;6.20;;;3.72;;
36321;SDS011;23564;48.290;11.460;2023-04-25T04:01:43;6.05;;;3.78;;
36321;SDS011;23564;48.290;11.460;2023-04-25T04:04:08;3.95;;;3.08;;
36321;SDS011;23564;48.290;11.460;2023-04-25T04:06:34;15.63;;;3.40;;
36321;SDS011;23564;48.290;11.460;2023-04-25T04:08:59;6.70;;;2.92;;
36321;SDS011;23564;48.290;11.460;2023-04-25T04:11:25;8.00;;;3.30;;
36321;SDS011;23564;48.290;11.460;2023-04-25T04:13:51;5.97;;;3.05;;
36321;SDS011;23564;48.290;11.460;2023-04-25T04:16:16;5.60;;;3.40;;
36321;SDS011;23564;48.290;11.460;2023-04-25T04:18:42;5.13;;;2.92;;
36321;SDS011;23564;48.290;11.460;2023-04-25T04:21:07;6.03;;;3.15;;
36321;SDS011;23564;48.290;11.460;2023-04-25T04:23:33;5.15;;;2.30;;
36321;SDS011;23564;48.290;11.460;2023-04-25T04:25:58;6.70;;;2.45;;
36321;SDS011;23564;48.290;11.460;2023-04-25T04:28:24;4.00;;;1.88;;
36321;SDS011;23564;48.290;11.460;2023-04-25T04:30:51;7.43;;;2.22;;
36321;SDS011;23564;48.290;11.460;2023-04-25T04:33:17;9.07;;;2.63;;
36321;SDS011;23564;48.290;11.460;2023-04-25T04:35:46;6.90;;;2.83;;
36321;SDS011;23564;48.290;11.460;2023-04-25T04:38:12;4.55;;;2.08;;
36321;SDS011;23564;48.290;11.460;2023-04-25T04:40:40;3.42;;;2.08;;
36321;SDS011;23564;48.290;11.460;2023-04-25T04:43:07;2.05;;;1.88;;
36321;SDS011;23564;48.290;11.460;2023-04-25T04:45:35;2.72;;;1.77;;
36321;SDS011;23564;48.290;11.460;2023-04-25T04:48:03;5.00;;;1.90;;
36321;SDS011;23564;48.290;11.460;2023-04-25T04:50:30;5.30;;;1.95;;
36321;SDS011;23564;48.290;11.460;2023-04-25T04:52:57;3.72;;;2.15;;
36321;SDS011;23564;48.290;11.460;2023-04-25T04:55:23;5.13;;;1.95;;
36321;SDS011;23564;48.290;11.460;2023-04-25T04:57:48;5.93;;;2.30;;
36321;SDS011;23564;48.290;11.460;2023-04-25T05:00:14;5.10;;;2.30;;
36321;SDS011;23564;48.290;11.460;2023-04-25T05:02:40;8.15;;;2.50;;
36321;SDS011;23564;48.290;11.460;2023-04-25T05:05:06;3.50;;;2.33;;
36321;SDS011;23564;48.290;11.460;2023-04-25T05:07:32;3.92;;;1.80;;
36321;SDS011;23564;48.290;11.460;2023-04-25T05:09:58;3.10;;;2.20;;
36321;SDS011;23564;48.290;11.460;2023-04-25T05:12:24;3.90;;;2.28;;
36321;SDS011;23564;48.290;11.460;2023-04-25T05:14:50;5.93;;;2.58;;
36321;SDS011;23564;48.290;11.460;2023-04-25T05:17:15;3.80;;;2.45;;
36321;SDS011;23564;48.290;11.460;2023-04-25T05:19:41;5.07;;;2.92;;
36321;SDS011;23564;48.290;11.460;2023-04-25T05:22:06;5.63;;;3.45;;
36321;SDS011;23564;48.290;11.460;2023-04-25T05:24:32;5.00;;;3.25;;
36321;SDS011;23564;48.290;11.460;2023-04-25T05:26:58;5.20;;;2.55;;
36321;SDS011;23564;48.290;11.460;2023-04-25T05:29:23;5.22;;;2.30;;
36321;SDS011;23564;48.290;11.460;2023-04-25T05:31:49;5.15;;;2.33;;
36321;SDS011;23564;48.290;11.460;2023-04-25T05:34:14;4.25;;;2.20;;
36321;SDS011;23564;48.290;11.460;2023-04-25T05:36:41;3.70;;;2.33;;
36321;SDS011;23564;48.290;11.460;2023-04-25T05:39:07;5.28;;;2.78;;
36321;SDS011;23564;48.290;11.460;2023-04-25T05:41:33;6.82;;;2.33;;
36321;SDS011;23564;48.290;11.460;2023-04-25T05:43:59;3.67;;;2.45;;
36321;SDS011;23564;48.290;11.460;2023-04-25T05:46:24;7.65;;;2.42;;
36321;SDS011;23564;48.290;11.460;2023-04-25T05:48:50;6.47;;;2.85;;
36321;SDS011;23564;48.290;11.460;2023-04-25T05:51:16;8.60;;;2.78;;
36321;SDS011;23564;48.290;11.460;2023-04-25T05:53:43;5.15;;;3.05;;
36321;SDS011;23564;48.290;11.460;2023-04-25T05:56:08;7.75;;;2.95;;
36321;SDS011;23564;48.290;11.460;2023-04-25T05:58:34;4.10;;;2.80;;
36321;SDS011;23564;48.290;11.460;2023-04-25T06:01:00;6.88;;;3.10;;
36321;SDS011;23564;48.290;11.460;2023-04-25T06:03:26;6.55;;;3.20;;
36321;SDS011;23564;48.290;11.460;2023-04-25T06:05:51;6.35;;;3.40;;
36321;SDS011;23564;48.290;11.460;2023-04-25T06:08:17;5.05;;;2.90;;
36321;SDS011;23564;48.290;11.460;2023-04-25T06:10:42;5.65;;;3.10;;
36321;SDS011;23564;48.290;11.460;2023-04-25T06:13:08;8.05;;;3.50;;
36321;SDS011;23564;48.290;11.460;2023-04-25T06:15:33;6.53;;;3.58;;
36321;SDS011;23564;48.290;11.460;2023-04-25T06:17:59;12.43;;;3.17;;
36321;SDS011;23564;48.290;11.460;2023-04-25T06:20:25;7.70;;;3.70;;
36321;SDS011;23564;48.290;11.460;2023-04-25T06:22:51;8.73;;;3.80;;
36321;SDS011;23564;48.290;11.460;2023-04-25T06:25:17;9.30;;;3.22;;
36321;SDS011;23564;48.290;11.460;2023-04-25T06:27:43;8.20;;;3.80;;
36321;SDS011;23564;48.290;11.460;2023-04-25T06:30:08;7.18;;;4.22;;
36321;SDS011;23564;48.290;11.460;2023-04-25T06:32:36;8.23;;;4.50;;
36321;SDS011;23564;48.290;11.460;2023-04-25T06:35:02;8.60;;;3.88;;
36321;SDS011;23564;48.290;11.460;2023-04-25T06:37:28;8.50;;;3.20;;
36321;SDS011;23564;48.290;11.460;2023-04-25T06:39:53;7.28;;;3.45;;
36321;SDS011;23564;48.290;11.460;2023-04-25T06:42:19;10.63;;;3.60;;
36321;SDS011;23564;48.290;11.460;2023-04-25T06:44:44;5.50;;;3.10;;
36321;SDS011;23564;48.290;11.460;2023-04-25T06:47:10;5.47;;;3.28;;
36321;SDS011;23564;48.290;11.460;2023-04-25T06:49:36;8.27;;;2.83;;
36321;SDS011;23564;48.290;11.460;2023-04-25T06:52:01;5.30;;;3.05;;
36321;SDS011;23564;48.290;11.460;2023-04-25T06:54:27;6.18;;;2.92;;
36321;SDS011;23564;48.290;11.460;2023-04-25T06:56:54;8.55;;;3.03;;
36321;SDS011;23564;48.290;11.460;2023-04-25T06:59:20;6.40;;;2.88;;
36321;SDS011;23564;48.290;11.460;2023-04-25T07:01:46;8.40;;;3.55;;
36321;SDS011;23564;48.290;11.460;2023-04-25T07:04:12;7.60;;;3.42;;
36321;SDS011;23564;48.290;11.460;2023-04-25T07:06:37;8.05;;;3.25;;
36321;SDS011;23564;48.290;11.460;2023-04-25T07:09:07;7.47;;;3.10;;
36321;SDS011;23564;48.290;11.460;2023-04-25T07:11:33;9.05;;;3.60;;
36321;SDS011;23564;48.290;11.460;2023-04-25T07:13:59;5.70;;;3.05;;
36321;SDS011;23564;48.290;11.460;2023-04-25T07:16:24;6.35;;;2.78;;
36321;SDS011;23564;48.290;11.460;2023-04-25T07:18:50;7.28;;;3.15;;
36321;SDS011;23564;48.290;11.460;2023-04-25T07:21:16;7.45;;;3.22;;
36321;SDS011;23564;48.290;11.460;2023-04-25T07:23:41;6.88;;;3.13;;
36321;SDS011;23564;48.290;11.460;2023-04-25T07:26:07;10.00;;;3.42;;
36321;SDS011;23564;48.290;11.460;2023-04-25T07:28:33;5.72;;;2.95;;
36321;SDS011;23564;48.290;11.460;2023-04-25T07:30:58;6.95;;;3.30;;
36321;SDS011;23564;48.290;11.460;2023-04-25T07:33:24;8.23;;;3.40;;
36321;SDS011;23564;48.290;11.460;2023-04-25T07:35:49;5.53;;;2.95;;
36321;SDS011;23564;48.290;11.460;2023-04-25T07:38:15;5.13;;;3.30;;
36321;SDS011;23564;48.290;11.460;2023-04-25T07:40:41;4.43;;;3.05;;
36321;SDS011;23564;48.290;11.460;2023-04-25T07:43:06;6.78;;;3.25;;
36321;SDS011;23564;48.290;11.460;2023-04-25T07:45:32;10.13;;;2.60;;
36321;SDS011;23564;48.290;11.460;2023-04-25T07:47:58;6.88;;;2.97;;
36321;SDS011;23564;48.290;11.460;2023-04-25T07:50:23;4.43;;;2.78;;
36321;SDS011;23564;48.290;11.460;2023-04-25T07:52:49;5.35;;;2.55;;
36321;SDS011;23564;48.290;11.460;2023-04-25T07:55:15;5.15;;;2.20;;
36321;SDS011;23564;48.290;11.460;2023-04-25T07:57:41;5.78;;;2.35;;
36321;SDS011;23564;48.290;11.460;2023-04-25T08:00:06;7.97;;;2.60;;
36321;SDS011;23564;48.290;11.460;2023-04-25T08:02:34;5.55;;;2.33;;
36321;SDS011;23564;48.290;11.460;2023-04-25T08:05:00;6.00;;;2.10;;
36321;SDS011;23564;48.290;11.460;2023-04-25T08:07:26;4.80;;;2.00;;
36321;SDS011;23564;48.290;11.460;2023-04-25T08:09:51;4.13;;;2.28;;
36321;SDS011;23564;48.290;11.460;2023-04-25T08:12:17;6.35;;;2.33;;
36321;SDS011;23564;48.290;11.460;2023-04-25T08:14:43;5.65;;;2.25;;
36321;SDS011;23564;48.290;11.460;2023-04-25T08:17:09;8.30;;;2.55;;
36321;SDS011;23564;48.290;11.460;2023-04-25T08:19:34;3.53;;;2.30;;
36321;SDS011;23564;48.290;11.460;2023-04-25T08:22:00;3.88;;;1.92;;
36321;SDS011;23564;48.290;11.460;2023-04-25T08:24:26;4.63;;;2.00;;
36321;SDS011;23564;48.290;11.460;2023-04-25T08:26:51;2.03;;;1.27;;
36321;SDS011;23564;48.290;11.460;2023-04-25T08:29:17;5.22;;;1.98;;
36321;SDS011;23564;48.290;11.460;2023-04-25T08:31:43;4.50;;;2.10;;
36321;SDS011;23564;48.290;11.460;2023-04-25T08:34:08;3.55;;;1.90;;
36321;SDS011;23564;48.290;11.460;2023-04-25T08:36:34;4.28;;;1.80;;
36321;SDS011;23564;48.290;11.460;2023-04-25T08:39:00;2.88;;;1.55;;
36321;SDS011;23564;48.290;11.460;2023-04-25T08:41:26;2.17;;;1.50;;
36321;SDS011;23564;48.290;11.460;2023-04-25T08:43:52;5.35;;;1.58;;
36321;SDS011;23564;48.290;11.460;2023-04-25T08:46:20;6.80;;;2.08;;
36321;SDS011;23564;48.290;11.460;2023-04-25T08:48:47;3.40;;;1.90;;
36321;SDS011;23564;48.290;11.460;2023-04-25T08:51:16;3.45;;;1.80;;
36321;SDS011;23564;48.290;11.460;2023-04-25T08:53:51;4.10;;;1.85;;
36321;SDS011;23564;48.290;11.460;2023-04-25T08:56:17;3.08;;;1.90;;
36321;SDS011;23564;48.290;11.460;2023-04-25T08:58:45;7.57;;;1.80;;
36321;SDS011;23564;48.290;11.460;2023-04-25T09:01:13;2.92;;;1.80;;
36321;SDS011;23564;48.290;11.460;2023-04-25T09:03:38;4.97;;;1.90;;
36321;SDS011;23564;48.290;11.460;2023-04-25T09:06:05;5.57;;;1.70;;
36321;SDS011;23564;48.290;11.460;2023-04-25T09:08:31;3.22;;;1.90;;
36321;SDS011;23564;48.290;11.460;2023-04-25T09:10:56;3.13;;;1.50;;
36321;SDS011;23564;48.290;11.460;2023-04-25T09:13:26;4.60;;;1.50;;
36321;SDS011;23564;48.290;11.460;2023-04-25T09:15:53;3.60;;;2.15;;
36321;SDS011;23564;48.290;11.460;2023-04-25T09:18:23;2.58;;;1.83;;
36321;SDS011;23564;48.290;11.460;2023-04-25T09:21:09;2.25;;;1.55;;
36321;SDS011;23564;48.290;11.460;2023-04-25T09:23:43;6.15;;;1.98;;
36321;SDS011;23564;48.290;11.460;2023-04-25T09:26:14;6.93;;;1.90;;
36321;SDS011;23564;48.290;11.460;2023-04-25T09:28:41;3.25;;;1.40;;
36321;SDS011;23564;48.290;11.460;2023-04-25T09:31:09;3.42;;;1.75;;
36321;SDS011;23564;48.290;11.460;2023-04-25T09:33:35;3.17;;;1.63;;
36321;SDS011;23564;48.290;11.460;2023-04-25T09:36:04;4.68;;;1.60;;
36321;SDS011;23564;48.290;11.460;2023-04-25T09:38:41;2.30;;;1.60;;
36321;SDS011;23564;48.290;11.460;2023-04-25T09:41:08;3.55;;;1.73;;
36321;SDS011;23564;48.290;11.460;2023-04-25T09:43:35;4.95;;;1.77;;
36321;SDS011;23564;48.290;11.460;2023-04-25T09:46:00;5.78;;;1.75;;
36321;SDS011;23564;48.290;11.460;2023-04-25T09:48:27;6.63;;;2.00;;
36321;SDS011;23564;48.290;11.460;2023-04-25T09:51:06;4.93;;;1.65;;
36321;SDS011;23564;48.290;11.460;2023-04-25T09:53:35;5.63;;;1.88;;
36321;SDS011;23564;48.290;11.460;2023-04-25T09:56:05;2.97;;;1.90;;
36321;SDS011;23564;48.290;11.460;2023-04-25T09:58:32;7.35;;;2.00;;
36321;SDS011;23564;48.290;11.460;2023-04-25T10:01:00;5.10;;;1.95;;
36321;SDS011;23564;48.290;11.460;2023-04-25T10:03:29;2.60;;;1.80;;
36321;SDS011;23564;48.290;11.460;2023-04-25T10:05:56;5.25;;;1.98;;
36321;SDS011;23564;48.290;11.460;2023-04-25T10:08:24;3.67;;;1.80;;
36321;SDS011;23564;48.290;11.460;2023-04-25T10:10:54;3.67;;;1.45;;
36321;SDS011;23564;48.290;11.460;2023-04-25T10:13:20;3.90;;;1.65;;
36321;SDS011;23564;48.290;11.460;2023-04-25T10:15:46;6.32;;;1.48;;
36321;SDS011;23564;48.290;11.460;2023-04-25T10:18:12;6.05;;;1.50;;
36321;SDS011;23564;48.290;11.460;2023-04-25T10:20:38;3.63;;;1.60;;
36321;SDS011;23564;48.290;11.460;2023-04-25T10:23:06;4.20;;;1.80;;
36321;SDS011;23564;48.290;11.460;2023-04-25T10:25:38;3.47;;;1.25;;
36321;SDS011;23564;48.290;11.460;2023-04-25T10:28:05;1.45;;;0.85;;
36321;SDS011;23564;48.290;11.460;2023-04-25T10:30:31;1.77;;;0.90;;
36321;SDS011;23564;48.290;11.460;2023-04-25T10:32:56;1.60;;;0.90;;
36321;SDS011;23564;48.290;11.460;2023-04-25T10:35:27;2.72;;;1.02;;
36321;SDS011;23564;48.290;11.460;2023-04-25T10:37:58;2.92;;;1.55;;
36321;SDS011;23564;48.290;11.460;2023-04-25T10:40:24;4.05;;;1.20;;
36321;SDS011;23564;48.290;11.460;2023-04-25T10:42:53;3.65;;;1.45;;
36321;SDS011;23564;48.290;11.460;2023-04-25T10:45:20;4.38;;;0.85;;
36321;SDS011;23564;48.290;11.460;2023-04-25T10:47:46;2.92;;;1.08;;
36321;SDS011;23564;48.290;11.460;2023-04-25T10:50:14;4.22;;;1.20;;
36321;SDS011;23564;48.290;11.460;2023-04-25T10:52:43;2.90;;;1.60;;
36321;SDS011;23564;48.290;11.460;2023-04-25T10:55:09;2.50;;;1.40;;
36321;SDS011;23564;48.290;11.460;2023-04-25T10:57:42;4.72;;;1.40;;
36321;SDS011;23564;48.290;11.460;2023-04-25T11:02:40;6.97;;;1.90;;
36321;SDS011;23564;48.290;11.460;2023-04-25T11:05:15;9.10;;;2.50;;
36321;SDS011;23564;48.290;11.460;2023-04-25T11:07:51;6.45;;;2.45;;
36321;SDS011;23564;48.290;11.460;2023-04-25T11:10:19;10.48;;;2.67;;
36321;SDS011;23564;48.290;11.460;2023-04-25T11:12:45;6.40;;;2.58;;
36321;SDS011;23564;48.290;11.460;2023-04-25T11:15:12;6.80;;;3.38;;
36321;SDS011;23564;48.290;11.460;2023-04-25T11:17:38;5.07;;;3.05;;
36321;SDS011;23564;48.290;11.460;2023-04-25T11:20:05;6.22;;;3.20;;
36321;SDS011;23564;48.290;11.460;2023-04-25T11:22:37;6.78;;;2.47;;
36321;SDS011;23564;48.290;11.460;2023-04-25T11:25:06;6.88;;;3.15;;
36321;SDS011;23564;48.290;11.460;2023-04-25T11:30:16;5.38;;;3.15;;
36321;SDS011;23564;48.290;11.460;2023-04-25T11:32:43;4.22;;;2.92;;
36321;SDS011;23564;48.290;11.460;2023-04-25T11:35:09;5.95;;;2.92;;
36321;SDS011;23564;48.290;11.460;2023-04-25T11:37:35;6.90;;;3.17;;
36321;SDS011;23564;48.290;11.460;2023-04-25T11:40:02;4.32;;;2.22;;
36321;SDS011;23564;48.290;11.460;2023-04-25T11:42:31;3.58;;;2.17;;
36321;SDS011;23564;48.290;11.460;2023-04-25T11:44:57;4.50;;;2.00;;
36321;SDS011;23564;48.290;11.460;2023-04-25T11:47:30;2.00;;;1.80;;
36321;SDS011;23564;48.290;11.460;2023-04-25T11:49:57;2.78;;;1.90;;
36321;SDS011;23564;48.290;11.460;2023-04-25T11:55:19;3.08;;;1.52;;
36321;SDS011;23564;48.290;11.460;2023-04-25T11:57:46;2.90;;;1.58;;
36321;SDS011;23564;48.290;11.460;2023-04-25T12:00:19;3.88;;;1.85;;
36321;SDS011;23564;48.290;11.460;2023-04-25T12:02:46;2.30;;;1.60;;
36321;SDS011;23564;48.290;11.460;2023-04-25T12:05:16;3.05;;;1.77;;
36321;SDS011;23564;48.290;11.460;2023-04-25T12:07:41;4.68;;;2.13;;
36321;SDS011;23564;48.290;11.460;2023-04-25T12:10:11;4.05;;;1.23;;
36321;SDS011;23564;48.290;11.460;2023-04-25T12:12:41;3.85;;;1.63;;
36321;SDS011;23564;48.290;11.460;2023-04-25T12:15:11;3.30;;;1.67;;
36321;SDS011;23564;48.290;11.460;2023-04-25T12:17:40;2.60;;;1.75;;
36321;SDS011;23564;48.290;11.460;2023-04-25T12:20:11;5.70;;;1.75;;
36321;SDS011;23564;48.290;11.460;2023-04-25T12:22:45;3.45;;;1.65;;
36321;SDS011;23564;48.290;11.460;2023-04-25T12:25:34;7.10;;;1.58;;
36321;SDS011;23564;48.290;11.460;2023-04-25T12:33:22;5.03;;;2.03;;
36321;SDS011;23564;48.290;11.460;2023-04-25T12:35:49;4.13;;;2.05;;
36321;SDS011;23564;48.290;11.460;2023-04-25T12:38:24;2.17;;;1.38;;
36321;SDS011;23564;48.290;11.460;2023-04-25T12:40:51;3.50;;;1.75;;
36321;SDS011;23564;48.290;11.460;2023-04-25T12:43:17;5.10;;;2.20;;
36321;SDS011;23564;48.290;11.460;2023-04-25T12:45:52;4.97;;;2.00;;
36321;SDS011;23564;48.290;11.460;2023-04-25T12:48:19;2.53;;;1.92;;
36321;SDS011;23564;48.290;11.460;2023-04-25T12:50:46;2.03;;;1.75;;
36321;SDS011;23564;48.290;11.460;2023-04-25T12:53:16;2.60;;;1.60;;
36321;SDS011;23564;48.290;11.460;2023-04-25T12:55:42;3.10;;;1.80;;
36321;SDS011;23564;48.290;11.460;2023-04-25T12:58:08;3.03;;;2.05;;
36321;SDS011;23564;48.290;11.460;2023-04-25T13:00:33;1.40;;;1.27;;
36321;SDS011;23564;48.290;11.460;2023-04-25T13:02:59;3.83;;;1.73;;
36321;SDS011;23564;48.290;11.460;2023-04-25T13:05:25;4.38;;;1.90;;
36321;SDS011;23564;48.290;11.460;2023-04-25T13:07:50;3.50;;;1.77;;
36321;SDS011;23564;48.290;11.460;2023-04-25T13:10:16;3.25;;;1.90;;
36321;SDS011;23564;48.290;11.460;2023-04-25T13:12:43;2.80;;;1.52;;
36321;SDS011;23564;48.290;11.460;2023-04-25T13:15:09;1.95;;;1.00;;
36321;SDS011;23564;48.290;11.460;2023-04-25T13:17:36;1.27;;;0.77;;
36321;SDS011;23564;48.290;11.460;2023-04-25T13:20:03;0.98;;;0.70;;
36321;SDS011;23564;48.290;11.460;2023-04-25T13:22:33;4.22;;;0.95;;
36321;SDS011;23564;48.290;11.460;2023-04-25T13:25:03;0.90;;;0.70;;
36321;SDS011;23564;48.290;11.460;2023-04-25T13:27:29;1.27;;;0.70;;
36321;SDS011;23564;48.290;11.460;2023-04-25T13:29:57;1.10;;;0.90;;
36321;SDS011;23564;48.290;11.460;2023-04-25T13:32:23;1.10;;;0.75;;
36321;SDS011;23564;48.290;11.460;2023-04-25T13:34:48;4.05;;;0.88;;
36321;SDS011;23564;48.290;11.460;2023-04-25T13:37:14;2.28;;;0.90;;
36321;SDS011;23564;48.290;11.460;2023-04-25T13:39:40;3.38;;;1.02;;
36321;SDS011;23564;48.290;11.460;2023-04-25T13:42:06;1.40;;;0.80;;
36321;SDS011;23564;48.290;11.460;2023-04-25T13:44:31;1.67;;;0.80;;
36321;SDS011;23564;48.290;11.460;2023-04-25T13:46:57;2.17;;;1.10;;
36321;SDS011;23564;48.290;11.460;2023-04-25T13:49:23;1.90;;;0.95;;
36321;SDS011;23564;48.290;11.460;2023-04-25T13:51:48;4.03;;;1.10;;
36321;SDS011;23564;48.290;11.460;2023-04-25T13:54:14;1.02;;;0.93;;
36321;SDS011;23564;48.290;11.460;2023-04-25T13:56:39;1.60;;;1.20;;
36321;SDS011;23564;48.290;11.460;2023-04-25T13:59:07;1.58;;;1.00;;
36321;SDS011;23564;48.290;11.460;2023-04-25T14:01:32;2.75;;;1.27;;
36321;SDS011;23564;48.290;11.460;2023-04-25T14:04:00;1.73;;;1.30;;
36321;SDS011;23564;48.290;11.460;2023-04-25T14:06:26;2.45;;;1.63;;
36321;SDS011;23564;48.290;11.460;2023-04-25T14:08:52;3.03;;;1.70;;
36321;SDS011;23564;48.290;11.460;2023-04-25T14:11:18;3.05;;;2.25;;
36321;SDS011;23564;48.290;11.460;2023-04-25T14:13:44;2.28;;;1.50;;
36321;SDS011;23564;48.290;11.460;2023-04-25T14:16:10;1.80;;;1.50;;
36321;SDS011;23564;48.290;11.460;2023-04-25T14:18:36;1.48;;;1.38;;
36321;SDS011;23564;48.290;11.460;2023-04-25T14:21:01;1.90;;;1.60;;
36321;SDS011;23564;48.290;11.460;2023-04-25T14:23:27;2.80;;;1.48;;
36321;SDS011;23564;48.290;11.460;2023-04-25T14:25:53;2.15;;;1.70;;
36321;SDS011;23564;48.290;11.460;2023-04-25T14:28:19;1.20;;;1.08;;
36321;SDS011;23564;48.290;11.460;2023-04-25T14:30:44;7.05;;;1.40;;
36321;SDS011;23564;48.290;11.460;2023-04-25T14:33:10;1.30;;;1.05;;
36321;SDS011;23564;48.290;11.460;2023-04-25T14:35:36;1.85;;;1.08;;
36321;SDS011;23564;48.290;11.460;2023-04-25T14:38:02;0.60;;;0.50;;
36321;SDS011;23564;48.290;11.460;2023-04-25T14:40:27;0.75;;;0.60;;
36321;SDS011;23564;48.290;11.460;2023-04-25T14:42:53;0.88;;;0.77;;